Weather at Dala Airport

Public forecast

Using degrees Celsius for public forecast. Weather courtesy of forecast.io.

Current aviation weather report (METAR) for Dala Airport

Retrieved 2022/08/15 18:20 UTC (11 minutes ago):

ESSD 151820Z AUTO 10004KT 9999 FEW096/// BKN150/// 23/16 Q1012

Aviation forecast (TAF) for Dala Airport

Forecast is more than 12 hours old.

Retrieved 2022/04/07 18:12 UTC (4 months ago):

TAF ESSD 071731Z 0718/0806 CNL